Time;durP1;ratioP1;P1;durP2;ratioP2;P2;SDS_P1;SDS_P2;PMS_P1;PMS_P2;Temp;Humidity;BMP_temperature;BMP_pressure;BME280_temperature;BME280_humidity;BME280_pressure;Samples;Min_cycle;Max_cycle;Signal;HPM_P1;HPM_P2
2023/01/09 00:02:39;;;;;;;36.75;19.77;;;;;;;-9.43;63.12;101811.20;1779282;80;21743;-77
2023/01/09 00:05:44;;;;;;;41.60;17.35;;;;;;;-9.44;63.12;101809.45;1779761;80;21168;-78
2023/01/09 00:08:50;;;;;;;33.20;16.75;;;;;;;-9.64;63.60;101814.92;1778109;80;21200;-77
2023/01/09 00:11:55;;;;;;;38.55;17.48;;;;;;;-9.90;64.47;101815.09;1778052;80;21189;-78
2023/01/09 00:15:02;;;;;;;34.40;16.45;;;;;;;-9.98;64.92;101803.22;1778009;80;21188;-77
2023/01/09 00:18:08;;;;;;;32.85;15.58;;;;;;;-9.82;64.55;101803.56;1777988;80;21232;-78
2023/01/09 00:21:15;;;;;;;41.68;14.80;;;;;;;-9.54;64.08;101798.05;1778152;80;21188;-78
2023/01/09 00:24:22;;;;;;;30.68;15.32;;;;;;;-9.58;63.96;101805.59;1777999;80;21215;-78
2023/01/09 00:27:28;;;;;;;37.30;20.00;;;;;;;-9.43;63.47;101800.15;1779520;80;21192;-77
2023/01/09 00:30:33;;;;;;;34.50;16.23;;;;;;;-9.50;63.71;101796.23;1778851;80;21220;-78
2023/01/09 00:33:43;;;;;;;41.77;18.15;;;;;;;-9.54;63.95;101785.69;1779373;80;22364;-78
2023/01/09 00:36:53;;;;;;;39.05;19.55;;;;;;;-9.50;64.10;101782.98;1779428;80;21189;-79
2023/01/09 00:39:57;;;;;;;40.90;18.27;;;;;;;-9.45;63.80;101782.08;1778641;80;21739;-78
2023/01/09 00:43:03;;;;;;;33.20;14.05;;;;;;;-9.40;63.58;101781.59;1779519;80;21157;-78
2023/01/09 00:46:10;;;;;;;37.70;16.00;;;;;;;-9.45;63.36;101779.42;1778129;80;21224;-77
2023/01/09 00:49:17;;;;;;;35.10;17.23;;;;;;;-9.43;63.44;101775.42;1777994;80;21247;-78
2023/01/09 00:52:22;;;;;;;39.50;18.20;;;;;;;-9.56;63.72;101768.91;1779305;80;21771;-78
2023/01/09 00:55:22;;;;;;;37.35;16.50;;;;;;;-9.45;63.55;101767.95;1774244;80;21216;-78
2023/01/09 00:58:27;;;;;;;34.67;17.25;;;;;;;-9.54;63.61;101760.52;1771223;81;21181;-78
2023/01/09 01:01:33;;;;;;;25.62;13.28;;;;;;;-9.56;63.71;101753.01;1770161;81;21335;-78
2023/01/09 01:08:03;;;;;;;40.65;20.72;;;;;;;-9.68;64.05;101743.88;1771001;81;21216;-78
2023/01/09 01:11:16;;;;;;;34.38;16.35;;;;;;;-9.73;64.02;101740.39;1770541;81;21252;-78
2023/01/09 01:14:22;;;;;;;34.53;18.67;;;;;;;-9.77;64.36;101729.83;1771244;81;21177;-78
2023/01/09 01:17:28;;;;;;;35.10;17.98;;;;;;;-9.72;64.29;101719.62;1771250;81;21236;-78
2023/01/09 01:20:34;;;;;;;40.23;22.32;;;;;;;-9.87;64.64;101719.77;1771202;81;21197;-77
2023/01/09 01:23:40;;;;;;;31.85;14.58;;;;;;;-9.87;64.82;101719.77;1769882;81;21778;-77
2023/01/09 01:26:45;;;;;;;39.73;19.95;;;;;;;-9.86;65.15;101716.22;1769708;81;21193;-78
2023/01/09 01:29:51;;;;;;;31.55;17.98;;;;;;;-9.64;64.85;101709.84;1771231;81;21222;-78
2023/01/09 01:32:57;;;;;;;41.70;19.35;;;;;;;-9.55;64.47;101710.17;1771226;81;21367;-78
2023/01/09 01:36:16;;;;;;;43.87;23.25;;;;;;;-9.58;64.38;101701.83;1771147;81;21188;-77
2023/01/09 01:39:21;;;;;;;24.00;13.27;;;;;;;-9.61;64.47;101699.20;1771131;81;21197;-78
2023/01/09 01:42:27;;;;;;;32.73;16.50;;;;;;;-9.76;64.77;101699.36;1769731;81;21636;-78
2023/01/09 01:45:39;;;;;;;38.67;19.65;;;;;;;-9.80;65.16;101701.59;1771293;81;21181;-78
2023/01/09 01:48:45;;;;;;;34.63;16.27;;;;;;;-9.69;65.27;101701.07;1771234;81;21232;-78
2023/01/09 01:51:55;;;;;;;36.25;18.60;;;;;;;-9.65;65.30;101694.82;1770448;81;21260;-77
2023/01/09 01:55:00;;;;;;;35.98;15.60;;;;;;;-9.37;64.79;101689.24;1770200;81;21204;-77
2023/01/09 01:58:10;;;;;;;36.83;19.32;;;;;;;-9.35;64.62;101677.75;1769732;81;21811;-77
2023/01/09 02:01:16;;;;;;;42.73;19.20;;;;;;;-9.40;64.93;101682.67;1770946;81;21184;-78
2023/01/09 02:04:22;;;;;;;34.33;16.45;;;;;;;-9.53;65.26;101681.47;1771042;81;21285;-77
2023/01/09 02:07:28;;;;;;;34.80;15.43;;;;;;;-9.59;65.55;101681.98;1770962;81;21184;-79
2023/01/09 02:10:34;;;;;;;36.80;20.37;;;;;;;-9.53;65.72;101685.89;1770522;81;21205;-78
2023/01/09 02:13:41;;;;;;;32.42;14.55;;;;;;;-9.67;66.09;101690.00;1769618;81;21734;-77
2023/01/09 02:16:55;;;;;;;30.68;14.25;;;;;;;-9.60;66.37;101686.38;1769861;81;21196;-77
2023/01/09 02:20:44;;;;;;;46.02;16.02;;;;;;;-9.70;66.67;101686.05;1771113;81;21188;-79
2023/01/09 02:24:17;;;;;;;38.53;14.93;;;;;;;-9.76;67.00;101690.09;1771341;81;21787;-78
2023/01/09 02:27:27;;;;;;;32.75;14.03;;;;;;;-9.74;67.32;101681.66;1771010;81;21228;-78
2023/01/09 02:31:12;;;;;;;33.90;14.83;;;;;;;-9.72;67.53;101681.23;1771162;81;21188;-79
2023/01/09 02:34:42;;;;;;;32.83;16.30;;;;;;;-9.70;67.64;101685.17;1719501;83;21255;-78
2023/01/09 02:38:01;;;;;;;35.38;15.15;;;;;;;-9.46;67.28;101677.42;1719490;83;21204;-78
2023/01/09 02:41:22;;;;;;;34.95;14.47;;;;;;;-10.19;69.14;101673.70;1690728;85;21199;-78
2023/01/09 02:44:37;;;;;;;43.23;15.95;;;;;;;-10.24;70.19;101679.06;1690525;85;21196;-78
2023/01/09 02:47:46;;;;;;;33.35;15.90;;;;;;;-10.29;70.78;101666.77;1689950;85;21279;-78
2023/01/09 02:51:05;;;;;;;30.82;14.00;;;;;;;-10.14;70.84;101666.16;1690924;85;21219;-78
2023/01/09 02:54:37;;;;;;;32.28;13.75;;;;;;;-10.15;71.01;101668.83;1690801;85;21255;-78
2023/01/09 02:57:55;;;;;;;38.13;18.02;;;;;;;-10.20;71.52;101670.19;1690630;85;21188;-78
2023/01/09 03:01:11;;;;;;;35.45;15.60;;;;;;;-10.13;71.47;101674.52;1690759;85;21259;-78
2023/01/09 03:04:33;;;;;;;34.65;15.00;;;;;;;-10.22;71.79;101669.30;1690762;85;21509;-78
2023/01/09 03:07:43;;;;;;;49.73;20.08;;;;;;;-10.28;72.04;101668.52;1689474;85;21207;-78
2023/01/09 03:11:08;;;;;;;52.03;21.75;;;;;;;-10.17;71.87;101667.49;1690860;85;21208;-78
2023/01/09 03:14:18;;;;;;;37.40;16.77;;;;;;;-10.18;71.83;101654.28;1689481;85;21223;-79
2023/01/09 03:17:35;;;;;;;29.57;13.48;;;;;;;-10.17;71.79;101647.64;1690361;85;21802;-78
2023/01/09 03:20:41;;;;;;;40.45;15.35;;;;;;;-10.23;72.25;101643.73;1690804;85;21243;-78
2023/01/09 03:24:00;;;;;;;29.40;13.32;;;;;;;-10.32;72.31;101653.98;1689768;85;21259;-78
2023/01/09 03:27:06;;;;;;;33.30;15.93;;;;;;;-10.28;72.28;101650.87;1690860;85;21256;-78
2023/01/09 03:30:12;;;;;;;35.45;17.55;;;;;;;-10.37;72.39;101646.52;1690944;85;21200;-78
2023/01/09 03:33:19;;;;;;;38.92;16.37;;;;;;;-10.28;72.41;101660.13;1690167;84;21329;-78
2023/01/09 03:36:26;;;;;;;42.35;17.17;;;;;;;-10.32;72.24;101647.36;1690734;85;21199;-78
2023/01/09 03:39:32;;;;;;;30.52;14.28;;;;;;;-10.34;72.36;101653.58;1691407;83;21845;-79
2023/01/09 03:42:38;;;;;;;47.73;17.05;;;;;;;-10.41;72.62;101650.53;1689449;85;21199;-79
2023/01/09 03:45:44;;;;;;;44.25;15.63;;;;;;;-10.50;72.80;101646.63;1689435;85;21251;-79
2023/01/09 03:48:51;;;;;;;41.63;15.18;;;;;;;-10.49;72.78;101658.95;1689866;85;21230;-79
2023/01/09 03:51:57;;;;;;;49.48;19.90;;;;;;;-10.41;72.47;101658.47;1690793;85;21211;-78
2023/01/09 03:55:02;;;;;;;42.80;19.12;;;;;;;-10.54;72.78;101660.75;1690803;85;21253;-79
2023/01/09 03:58:09;;;;;;;47.98;20.00;;;;;;;-10.57;72.90;101665.19;1690780;85;22426;-79
2023/01/09 04:01:16;;;;;;;46.42;16.60;;;;;;;-10.43;72.95;101666.88;1689493;85;21254;-79
2023/01/09 04:04:23;;;;;;;42.55;18.90;;;;;;;-10.42;72.61;101654.94;1689701;85;21231;-79
2023/01/09 04:07:28;;;;;;;56.08;22.42;;;;;;;-10.13;72.20;101657.32;1690898;85;21267;-79
2023/01/09 04:10:33;;;;;;;42.00;16.12;;;;;;;-9.99;71.65;101649.70;1690848;85;21306;-79
2023/01/09 04:13:38;;;;;;;40.23;17.82;;;;;;;-10.00;71.48;101655.45;1689336;84;21246;-78
2023/01/09 04:16:43;;;;;;;42.23;19.32;;;;;;;-10.01;71.55;101663.42;1690754;85;21267;-77
2023/01/09 04:19:50;;;;;;;43.28;17.52;;;;;;;-10.22;71.90;101665.78;1689585;85;21826;-78
2023/01/09 04:22:56;;;;;;;35.85;16.55;;;;;;;-10.12;72.07;101669.66;1690594;85;21222;-80
2023/01/09 04:26:02;;;;;;;50.20;17.65;;;;;;;-10.24;72.46;101664.52;1690568;85;21235;-79
2023/01/09 04:29:06;;;;;;;34.60;14.85;;;;;;;-10.11;72.05;101667.91;1690769;85;21204;-80
2023/01/09 04:32:11;;;;;;;45.30;17.17;;;;;;;-9.97;71.56;101666.44;1690735;85;21211;-80
2023/01/09 04:35:18;;;;;;;37.50;17.23;;;;;;;-9.94;71.23;101667.75;1689030;85;21211;-80
2023/01/09 04:38:23;;;;;;;40.85;16.77;;;;;;;-9.94;70.96;101671.72;1690618;83;21204;-80
2023/01/09 04:44:53;;;;;;;49.88;21.15;;;;;;;-10.13;71.45;101680.27;1689779;85;21239;-79
2023/01/09 04:47:58;;;;;;;38.60;17.20;;;;;;;-10.02;71.04;101691.63;1690758;85;21191;-80
2023/01/09 04:51:05;;;;;;;31.23;14.53;;;;;;;-9.89;70.67;101693.73;1689419;84;21223;-77
2023/01/09 04:54:11;;;;;;;35.05;16.85;;;;;;;-10.15;71.06;101683.38;1690431;85;21246;-77
2023/01/09 04:57:17;;;;;;;59.27;17.65;;;;;;;-9.99;70.46;101696.03;1690539;85;21204;-78
2023/01/09 05:00:23;;;;;;;31.17;14.65;;;;;;;-10.24;70.95;101684.36;1690805;85;21215;-78
2023/01/09 05:03:29;;;;;;;40.78;14.75;;;;;;;-10.14;70.75;101688.66;1689466;85;21262;-77
2023/01/09 05:06:35;;;;;;;50.75;14.95;;;;;;;-10.09;69.99;101681.55;1689448;85;21762;-78
2023/01/09 05:09:40;;;;;;;42.05;15.70;;;;;;;-10.11;69.90;101682.47;1690912;85;21497;-78
2023/01/09 05:12:47;;;;;;;41.77;14.07;;;;;;;-10.33;70.28;101689.27;1690807;85;21211;-78
2023/01/09 05:15:53;;;;;;;41.45;15.83;;;;;;;-10.45;70.95;101679.20;1690792;85;21207;-78
2023/01/09 05:19:00;;;;;;;43.50;17.98;;;;;;;-10.41;70.82;101683.59;1690699;85;21184;-77
2023/01/09 05:22:05;;;;;;;37.55;15.65;;;;;;;-10.22;70.37;101686.50;1690770;85;21595;-78
2023/01/09 05:25:11;;;;;;;41.55;14.47;;;;;;;-10.27;70.43;101680.41;1689959;85;21251;-77
2023/01/09 05:28:16;;;;;;;36.30;15.98;;;;;;;-10.36;70.66;101676.50;1690771;85;21208;-79
2023/01/09 05:31:21;;;;;;;34.30;15.90;;;;;;;-10.36;70.79;101676.50;1690748;85;21196;-77
2023/01/09 05:34:27;;;;;;;32.50;14.65;;;;;;;-10.60;71.23;101674.45;1690300;85;21211;-78
2023/01/09 05:37:33;;;;;;;39.53;17.75;;;;;;;-10.47;71.25;101673.06;1666527;86;21263;-77
2023/01/09 05:40:39;;;;;;;43.95;20.80;;;;;;;-10.71;71.75;101668.81;1666475;86;21808;-78
2023/01/09 05:43:45;;;;;;;33.95;15.75;;;;;;;-10.73;72.20;101675.41;1665209;86;21235;-77
2023/01/09 05:46:52;;;;;;;34.18;14.47;;;;;;;-10.34;71.36;101685.32;1666353;86;21342;-78
2023/01/09 05:49:59;;;;;;;37.75;15.72;;;;;;;-10.53;71.56;101685.02;1666103;86;21239;-79
2023/01/09 05:53:05;;;;;;;33.30;14.95;;;;;;;-10.52;72.02;101676.19;1666472;86;21527;-79
2023/01/09 05:56:10;;;;;;;38.60;15.23;;;;;;;-10.57;72.36;101674.45;1665169;86;21291;-78
2023/01/09 05:59:16;;;;;;;36.05;16.77;;;;;;;-10.43;72.20;101673.48;1664740;84;21271;-78
2023/01/09 06:02:22;;;;;;;35.05;14.28;;;;;;;-10.41;72.20;101655.81;1666255;86;21291;-79
2023/01/09 06:05:29;;;;;;;33.78;12.23;;;;;;;-10.33;72.03;101657.97;1640642;84;21252;-79
2023/01/09 06:08:35;;;;;;;36.98;15.18;;;;;;;-10.34;71.92;101654.90;1661221;86;21779;-80
2023/01/09 06:11:40;;;;;;;33.33;16.50;;;;;;;-10.31;72.31;101659.70;1666301;86;21287;-79
2023/01/09 06:14:47;;;;;;;26.60;12.55;;;;;;;-10.20;72.51;101666.66;1665711;84;21205;-78
2023/01/09 06:17:53;;;;;;;32.30;13.28;;;;;;;-10.15;72.55;101650.30;1654288;84;21206;-78
2023/01/09 06:20:57;;;;;;;34.90;15.13;;;;;;;-10.14;72.74;101651.59;1645596;84;21759;-78
2023/01/09 06:24:06;;;;;;;40.33;14.95;;;;;;;-10.10;73.08;101648.04;1671914;84;21326;-78
2023/01/09 06:27:17;;;;;;;38.67;18.80;;;;;;;-9.90;73.21;101641.68;1665007;84;21259;-79
2023/01/09 06:30:22;;;;;;;52.78;21.25;;;;;;;-9.90;73.07;101646.53;1664559;84;21263;-80
2023/01/09 06:33:28;;;;;;;54.27;22.85;;;;;;;-10.00;73.78;101654.13;1677542;84;21200;-79
2023/01/09 06:36:35;;;;;;;58.83;22.00;;;;;;;-9.76;73.57;101655.66;1664691;84;21180;-79
2023/01/09 06:39:57;;;;;;;63.20;23.20;;;;;;;-9.63;73.53;101656.42;1647485;85;21173;-78
2023/01/09 06:43:08;;;;;;;71.57;24.25;;;;;;;-9.36;72.90;101661.84;1656401;85;21196;-79
2023/01/09 06:46:19;;;;;;;73.22;26.00;;;;;;;-9.41;73.31;101672.94;1661952;85;21357;-79
2023/01/09 06:49:25;;;;;;;;;;;;;;;-9.32;73.66;101676.81;1665546;85;21264;-79
2023/01/09 06:52:31;;;;;;;67.25;26.87;;;;;;;-9.25;73.70;101677.19;1638027;86;20254;-77
2023/01/09 06:55:35;;;;;;;77.15;27.40;;;;;;;-9.08;73.53;101676.55;1653511;86;21215;-78
2023/01/09 06:58:41;;;;;;;73.92;28.73;;;;;;;-8.82;72.87;101684.61;1661103;85;21201;-78
2023/01/09 07:01:47;;;;;;;76.12;28.80;;;;;;;-8.69;72.70;101674.72;1653685;85;21244;-78
2023/01/09 07:04:52;;;;;;;77.60;30.68;;;;;;;-8.62;72.31;101679.02;1664176;85;21236;-80
2023/01/09 07:07:58;;;;;;;86.12;30.72;;;;;;;-8.53;72.57;101678.44;1666223;85;21210;-79
2023/01/09 07:11:04;;;;;;;75.30;29.15;;;;;;;-8.33;72.40;101670.13;1649688;85;21327;-79
2023/01/09 07:14:10;;;;;;;56.28;23.02;;;;;;;-8.27;71.64;101670.52;1655424;85;21216;-80
2023/01/09 07:17:18;;;;;;;69.40;25.00;;;;;;;-8.26;71.39;101663.84;1658648;85;21248;-78
2023/01/09 07:20:23;;;;;;;54.83;21.40;;;;;;;-8.20;71.06;101661.98;1659669;86;22414;-78
2023/01/09 07:23:29;;;;;;;47.03;18.07;;;;;;;-8.02;69.76;101662.56;1662285;85;21229;-78
2023/01/09 07:26:35;;;;;;;38.65;18.02;;;;;;;-7.94;68.71;101667.76;1656431;85;22478;-79
2023/01/09 07:29:40;;;;;;;42.75;17.98;;;;;;;-7.89;68.29;101665.02;1654610;85;21207;-80
2023/01/09 07:32:47;;;;;;;33.30;12.78;;;;;;;-7.65;66.87;101669.89;1659817;85;21519;-77
2023/01/09 07:35:52;;;;;;;25.80;12.58;;;;;;;-7.63;66.35;101674.72;1667346;85;22510;-78
2023/01/09 07:38:59;;;;;;;34.70;13.35;;;;;;;-7.60;65.53;101674.67;1677774;83;21207;-77
2023/01/09 07:42:06;;;;;;;29.70;13.40;;;;;;;-7.46;65.20;101661.13;1650562;85;21228;-77
2023/01/09 07:45:13;;;;;;;27.32;12.05;;;;;;;-7.19;64.53;101655.73;1650774;85;21204;-77
2023/01/09 07:48:16;;;;;;;24.87;11.68;;;;;;;-7.36;65.17;101659.16;1623230;87;21280;-78
2023/01/09 07:51:11;;;;;;;25.23;10.53;;;;;;;-7.11;64.78;101654.22;1650995;86;21218;-78
2023/01/09 07:54:17;;;;;;;28.60;11.83;;;;;;;-6.94;63.47;101660.08;1651357;85;21347;-78
2023/01/09 07:57:24;;;;;;;24.37;10.75;;;;;;;-6.65;62.82;101671.41;1650674;87;21157;-77
2023/01/09 08:00:30;;;;;;;28.47;10.85;;;;;;;-6.78;62.53;101683.23;1648010;85;21212;-77
2023/01/09 08:03:37;;;;;;;29.90;11.08;;;;;;;-6.64;62.85;101685.59;1652445;87;21498;-77
2023/01/09 08:06:43;;;;;;;24.82;10.40;;;;;;;-6.31;61.51;101670.63;1623339;86;21212;-77
2023/01/09 08:09:49;;;;;;;22.73;10.03;;;;;;;-6.04;60.06;101673.97;1650686;85;21264;-77
2023/01/09 08:12:56;;;;;;;25.45;10.68;;;;;;;-5.85;59.85;101666.81;1625167;87;21211;-78
2023/01/09 08:16:02;;;;;;;26.15;10.95;;;;;;;-5.51;57.83;101658.80;1652269;87;21208;-78
2023/01/09 08:19:10;;;;;;;24.60;11.05;;;;;;;-5.64;57.83;101670.27;1651637;86;21205;-79
2023/01/09 08:22:15;;;;;;;22.75;10.80;;;;;;;-5.73;59.14;101665.18;1645195;85;21252;-79
2023/01/09 08:25:20;;;;;;;20.72;9.90;;;;;;;-5.56;57.71;101659.39;1650509;85;21224;-78
2023/01/09 08:28:26;;;;;;;19.60;9.05;;;;;;;-5.44;55.92;101645.27;1622439;87;21287;-77
2023/01/09 08:31:31;;;;;;;21.15;9.60;;;;;;;-5.34;55.84;101639.69;1652225;85;21292;-78
2023/01/09 08:34:37;;;;;;;21.73;8.73;;;;;;;-5.35;56.21;101640.61;1626485;86;21550;-78
2023/01/09 08:37:43;;;;;;;19.27;8.70;;;;;;;-5.30;56.27;101638.22;1630287;85;21241;-78
2023/01/09 08:40:49;;;;;;;21.40;8.93;;;;;;;-4.88;54.64;101643.23;1653601;86;21580;-80
2023/01/09 08:47:22;;;;;;;15.58;8.38;;;;;;;-4.96;54.37;101630.11;1620098;87;21541;-78
2023/01/09 08:50:28;;;;;;;19.02;9.05;;;;;;;-4.85;53.50;101631.58;1593652;88;21268;-78
2023/01/09 08:53:34;;;;;;;20.02;8.20;;;;;;;-5.04;54.80;101625.45;1623844;86;22204;-78
2023/01/09 08:56:40;;;;;;;20.17;8.60;;;;;;;-4.50;54.12;101628.70;1622955;86;21288;-79
2023/01/09 08:59:46;;;;;;;20.75;7.60;;;;;;;-4.74;54.00;101620.13;1614018;86;21266;-79
2023/01/09 09:02:55;;;;;;;20.85;8.93;;;;;;;-4.31;52.55;101618.77;1616768;87;21234;-79
2023/01/09 09:06:01;;;;;;;18.10;8.30;;;;;;;-4.15;52.50;101606.17;1616745;87;21240;-78
2023/01/09 09:09:07;;;;;;;18.80;8.35;;;;;;;-4.08;51.89;101605.53;1619391;87;21273;-78
2023/01/09 09:12:14;;;;;;;28.25;7.45;;;;;;;-3.93;52.08;101601.45;1622523;87;21222;-79
2023/01/09 09:15:25;;;;;;;13.95;7.55;;;;;;;-3.72;51.66;101588.66;1611168;87;21213;-78
2023/01/09 09:18:30;;;;;;;16.75;7.97;;;;;;;-3.55;51.07;101581.38;1610285;89;21258;-77
2023/01/09 09:21:35;;;;;;;20.05;7.15;;;;;;;-3.65;50.96;101579.98;1617891;87;21236;-78
2023/01/09 09:24:42;;;;;;;13.65;7.03;;;;;;;-3.49;50.86;101576.27;1584463;89;21245;-78
2023/01/09 09:27:48;;;;;;;14.55;6.80;;;;;;;-3.50;49.77;101582.09;1602050;89;21267;-79
2023/01/09 09:30:54;;;;;;;18.77;7.33;;;;;;;-3.71;50.13;101573.52;1618971;87;21198;-78
2023/01/09 09:34:00;;;;;;;15.00;6.87;;;;;;;-3.21;50.63;101569.43;1600407;88;21905;-80
2023/01/09 09:37:07;;;;;;;22.65;10.23;;;;;;;-3.24;51.44;101569.09;1601837;88;21264;-80
2023/01/09 09:40:12;;;;;;;21.33;7.12;;;;;;;-2.84;50.27;101554.16;1600367;87;21271;-80
2023/01/09 09:47:37;;;;;;;14.05;6.47;;;;;;;-2.72;49.15;101547.46;1689049;83;21272;-80
2023/01/09 09:51:15;;;;;;;13.60;6.65;;;;;;;-2.52;48.07;101541.29;1683796;83;21220;-78
2023/01/09 09:54:28;;;;;;;15.32;6.92;;;;;;;-2.61;49.00;101534.50;1682889;84;21214;-78
2023/01/09 09:57:38;;;;;;;16.77;7.40;;;;;;;-2.51;47.99;101538.53;1685686;83;21205;-78
2023/01/09 10:00:44;;;;;;;17.77;7.12;;;;;;;-2.13;47.54;101534.72;1687486;83;21517;-79
2023/01/09 10:03:57;;;;;;;18.90;9.43;;;;;;;-1.75;46.91;101526.81;1685138;84;21246;-77
2023/01/09 10:07:12;;;;;;;18.92;9.13;;;;;;;-1.70;46.81;101513.59;1686880;84;21188;-78
2023/01/09 10:10:37;;;;;;;19.07;8.20;;;;;;;-1.43;47.01;101511.95;1682705;83;21234;-78
2023/01/09 10:17:35;;;;;;;28.62;10.75;;;;;;;-1.52;46.95;101509.69;1677269;83;21474;-79
2023/01/09 10:21:03;;;;;;;15.95;7.78;;;;;;;-1.39;46.69;101518.45;1686742;83;21300;-78
2023/01/09 10:24:25;;;;;;;42.10;13.78;;;;;;;-1.64;46.21;101521.86;1683911;83;21248;-78
2023/01/09 10:27:58;;;;;;;34.33;12.68;;;;;;;-1.43;46.54;101518.19;1686287;83;21302;-80
2023/01/09 10:31:24;;;;;;;23.30;6.33;;;;;;;-1.23;47.28;101519.07;1687133;83;21211;-79
2023/01/09 10:34:46;;;;;;;19.90;8.05;;;;;;;-1.33;46.16;101515.47;1683248;84;21198;-80
2023/01/09 10:37:52;;;;;;;11.03;4.70;;;;;;;-0.80;45.21;101516.11;1688057;83;21210;-77
2023/01/09 10:41:06;;;;;;;10.32;4.47;;;;;;;-0.69;43.44;101505.31;1682316;83;21778;-78
2023/01/09 10:44:23;;;;;;;9.75;3.72;;;;;;;-0.61;43.84;101501.74;1679772;84;22095;-78
2023/01/09 10:47:42;;;;;;;7.95;3.37;;;;;;;-0.66;43.61;101500.66;1678999;85;21200;-78
2023/01/09 10:50:58;;;;;;;10.38;3.47;;;;;;;-0.63;43.92;101496.94;1682436;84;21191;-79
2023/01/09 10:54:06;;;;;;;16.37;5.53;;;;;;;-0.45;44.03;101489.30;1676451;84;21200;-80
2023/01/09 10:57:23;;;;;;;10.20;4.20;;;;;;;-0.59;42.71;101482.41;1674694;85;21204;-80
2023/01/09 11:00:30;;;;;;;10.25;4.20;;;;;;;-0.75;42.13;101490.80;1644589;85;21767;-80
2023/01/09 11:03:29;;;;;;;8.23;3.95;;;;;;;-0.78;42.68;101479.28;1645277;86;21208;-80
2023/01/09 11:06:48;;;;;;;7.42;4.15;;;;;;;-1.05;43.61;101483.30;1639415;86;22832;-79
2023/01/09 11:10:14;;;;;;;22.25;4.85;;;;;;;-0.93;44.23;101477.34;1644428;86;21217;-79
2023/01/09 11:13:30;;;;;;;13.18;4.42;;;;;;;-0.72;43.38;101475.41;1646009;86;21209;-79
2023/01/09 11:16:36;;;;;;;6.58;3.55;;;;;;;-0.61;43.06;101470.84;1640243;85;21188;-77
2023/01/09 11:19:42;;;;;;;8.23;4.30;;;;;;;-0.86;44.39;101470.72;1639849;87;21303;-78
2023/01/09 11:22:53;;;;;;;11.55;3.92;;;;;;;-0.81;43.87;101465.98;1636130;87;21230;-78
2023/01/09 11:26:05;;;;;;;7.30;3.95;;;;;;;-0.77;44.29;101464.89;1641237;86;21317;-79
2023/01/09 11:29:17;;;;;;;9.60;5.28;;;;;;;-0.68;44.32;101471.63;1641543;87;22526;-79
2023/01/09 11:32:30;;;;;;;11.03;3.45;;;;;;;-0.67;43.93;101462.62;1639760;87;22470;-79
2023/01/09 11:35:39;;;;;;;7.35;2.95;;;;;;;-0.58;43.84;101459.95;1629131;87;21805;-79
2023/01/09 11:38:58;;;;;;;8.53;3.55;;;;;;;-0.69;43.41;101448.41;1620504;86;21236;-79
2023/01/09 11:42:07;;;;;;;12.60;3.58;;;;;;;-0.69;43.66;101470.38;1629645;86;21207;-78
2023/01/09 11:45:26;;;;;;;7.00;3.77;;;;;;;-0.63;43.58;101471.41;1648749;86;21256;-78
2023/01/09 11:49:03;;;;;;;6.22;3.20;;;;;;;-0.52;42.90;101473.06;1656510;85;21256;-78
2023/01/09 11:52:31;;;;;;;8.60;3.33;;;;;;;-0.51;42.96;101469.46;1654581;86;22381;-77
2023/01/09 11:55:40;;;;;;;8.98;3.17;;;;;;;-0.33;42.48;101465.84;1651976;85;21517;-78
2023/01/09 11:58:50;;;;;;;7.12;3.58;;;;;;;-0.52;41.97;101470.38;1650562;85;21242;-80
2023/01/09 12:02:28;;;;;;;6.28;3.17;;;;;;;-0.53;42.24;101475.37;1650467;85;21196;-80
2023/01/09 12:05:49;;;;;;;6.28;2.87;;;;;;;-0.38;41.89;101465.65;1657714;86;21814;-79
2023/01/09 12:09:14;;;;;;;8.73;2.02;;;;;;;-0.16;40.96;101451.98;1640567;86;21255;-80
2023/01/09 12:12:53;;;;;;;8.63;3.45;;;;;;;-0.30;42.05;101446.84;1661189;86;21228;-80
2023/01/09 12:16:29;;;;;;;5.72;2.98;;;;;;;-0.26;42.54;101452.45;1650312;86;21199;-79
2023/01/09 12:19:49;;;;;;;14.78;2.92;;;;;;;-0.15;41.95;101453.72;1657126;86;21280;-80
2023/01/09 12:23:28;;;;;;;8.03;3.10;;;;;;;-0.28;41.36;101454.37;1658972;86;21197;-80
2023/01/09 12:26:53;;;;;;;9.05;3.50;;;;;;;-0.16;41.30;101452.84;1660955;86;21213;-79
2023/01/09 12:30:27;;;;;;;6.60;3.70;;;;;;;-0.23;41.32;101459.98;1629701;87;21235;-79
2023/01/09 12:33:39;;;;;;;8.03;4.22;;;;;;;-0.27;41.54;101457.92;1634126;87;22367;-78
2023/01/09 12:37:21;;;;;;;7.78;3.92;;;;;;;-0.37;41.86;101478.17;1613791;87;21245;-78
2023/01/09 12:40:56;;;;;;;8.98;4.12;;;;;;;-0.47;42.18;101475.08;1652923;86;21284;-78
2023/01/09 12:44:09;;;;;;;16.35;5.85;;;;;;;-0.24;42.22;101477.05;1634211;86;21775;-78
2023/01/09 12:47:51;;;;;;;11.30;5.03;;;;;;;-0.20;41.77;101482.67;1642683;86;21217;-78
2023/01/09 12:50:59;;;;;;;;;;;;;;;-0.13;41.69;101483.63;1629672;86;21348;-79
2023/01/09 12:54:17;;;;;;;12.18;4.53;;;;;;;-0.20;41.71;101488.91;1632991;86;20265;-79
2023/01/09 12:57:40;;;;;;;11.00;4.67;;;;;;;-0.24;42.13;101491.36;1627998;87;21216;-78
2023/01/09 13:00:48;;;;;;;10.95;4.25;;;;;;;-0.36;42.47;101493.34;1627815;86;21214;-78
2023/01/09 13:04:15;;;;;;;14.98;6.40;;;;;;;-0.30;42.37;101484.96;1636305;86;21204;-77
2023/01/09 13:07:28;;;;;;;22.17;6.37;;;;;;;-0.42;42.97;101481.09;1609553;87;21227;-79
2023/01/09 13:10:40;;;;;;;17.27;6.75;;;;;;;-0.41;42.91;101488.20;1612448;87;21760;-80
2023/01/09 13:14:04;;;;;;;24.75;7.10;;;;;;;-0.36;43.08;101491.52;1639829;86;21766;-78
2023/01/09 13:17:10;;;;;;;17.52;7.17;;;;;;;-0.38;43.56;101495.23;1626133;86;21964;-78
2023/01/09 13:20:47;;;;;;;14.53;6.30;;;;;;;-0.51;43.95;101486.93;1638280;86;21828;-77
2023/01/09 13:24:28;;;;;;;16.77;6.17;;;;;;;-0.53;43.98;101494.18;1639940;86;21541;-79
2023/01/09 13:27:33;;;;;;;17.57;7.60;;;;;;;-0.39;43.68;101505.59;1634974;86;21205;-78
2023/01/09 13:31:28;;;;;;;16.40;5.97;;;;;;;-0.33;43.24;101504.83;1627765;87;21204;-80
2023/01/09 13:34:35;;;;;;;17.25;8.48;;;;;;;-0.52;43.25;101503.53;1639733;86;21835;-78
2023/01/09 13:37:37;;;;;;;15.48;7.17;;;;;;;-0.36;43.23;101496.03;1645325;86;21216;-78
2023/01/09 13:40:42;;;;;;;16.75;6.33;;;;;;;-0.45;43.67;101495.16;1656619;86;21245;-77
2023/01/09 13:44:07;;;;;;;11.18;5.40;;;;;;;-0.43;44.00;101492.77;1610967;87;21249;-78
2023/01/09 13:47:12;;;;;;;14.15;6.17;;;;;;;-0.54;44.36;101498.69;1642437;87;21242;-78
2023/01/09 13:50:32;;;;;;;14.75;6.15;;;;;;;-0.64;44.68;101507.30;1657797;85;21228;-79
2023/01/09 13:53:43;;;;;;;17.62;6.92;;;;;;;-0.78;44.91;101507.48;1650475;87;21818;-77
2023/01/09 13:57:28;;;;;;;16.52;7.62;;;;;;;-0.83;44.88;101500.12;1676802;85;21798;-77
2023/01/09 14:00:40;;;;;;;14.63;6.53;;;;;;;-1.02;45.22;101503.78;1651503;87;21815;-77
2023/01/09 14:03:45;;;;;;;20.43;6.90;;;;;;;-1.06;44.80;101507.95;1662041;85;21263;-77
2023/01/09 14:07:28;;;;;;;11.83;5.85;;;;;;;-1.03;44.36;101500.23;1650521;86;21565;-77
2023/01/09 14:10:37;;;;;;;25.92;11.53;;;;;;;-1.24;44.44;101502.09;1651908;87;21214;-78
2023/01/09 14:13:55;;;;;;;26.87;9.13;;;;;;;-1.23;44.61;101514.57;1650888;87;21586;-79
2023/01/09 14:16:58;;;;;;;19.12;6.78;;;;;;;-1.47;44.67;101512.55;1652339;87;21238;-79
2023/01/09 14:20:04;;;;;;;20.55;7.65;;;;;;;-1.34;44.82;101507.50;1652712;87;21214;-77
2023/01/09 14:23:10;;;;;;;23.47;8.13;;;;;;;-1.61;45.25;101506.47;1662052;86;21233;-77
2023/01/09 14:26:31;;;;;;;19.20;7.15;;;;;;;-1.76;45.64;101512.53;1658677;86;21192;-78
2023/01/09 14:29:46;;;;;;;11.10;4.97;;;;;;;-1.96;46.18;101515.23;1661558;86;21273;-79
2023/01/09 14:33:29;;;;;;;15.80;6.08;;;;;;;-1.96;46.27;101516.10;1662373;86;21316;-79
2023/01/09 14:36:34;;;;;;;11.43;5.20;;;;;;;-2.00;46.34;101517.17;1663181;86;21221;-79
2023/01/09 14:39:40;;;;;;;13.00;5.15;;;;;;;-2.03;46.39;101521.78;1663587;86;21308;-79
2023/01/09 14:42:47;;;;;;;15.13;5.60;;;;;;;-2.16;46.54;101511.61;1664053;86;21241;-79
2023/01/09 14:45:53;;;;;;;23.67;5.87;;;;;;;-2.17;46.72;101514.34;1662894;85;21417;-78
2023/01/09 14:49:10;;;;;;;23.15;6.95;;;;;;;-2.22;46.88;101515.88;1677192;85;21758;-78
2023/01/09 14:52:40;;;;;;;15.45;5.50;;;;;;;-2.22;46.88;101502.94;1629709;88;21224;-78